Terminal Aerodrome Forecast
Issued by NWS

Home | Current Version | Previous Version | Text Only | Print | Product List | Glossary On
Versions: 1 2 3 4 5 6 7 8 9 10 11 12 13 14
643
FTUS45 KGGW 091128
TAFSDY
TAF
KSDY 091128Z 0912/1012 00000KT P6SM SCT110
     FM091500 VRB03KT P6SM BKN030
     FM091800 VRB03KT P6SM BKN040=

USA.gov is the U.S. government's official web portal to all federal, state and local government web resources and services.